Time;durP1;ratioP1;P1;durP2;ratioP2;P2;SDS_P1;SDS_P2;PMS_P1;PMS_P2;Temp;Humidity;BMP_temperature;BMP_pressure;BME280_temperature;BME280_humidity;BME280_pressure;Samples;Min_cycle;Max_cycle;Signal;HPM_P1;HPM_P2
2022/01/08 00:00:25;;;;;;;;;;;18.30;53.70;;;;;;3893941;22;19972;-87
2022/01/08 00:01:57;;;;;;;;;;;18.30;53.80;;;;;;3894833;22;19919;-87
2022/01/08 00:03:28;;;;;;;;;;;18.30;53.70;;;;;;3894973;22;20408;-86
2022/01/08 00:05:00;;;;;;;;;;;18.30;53.70;;;;;;3895122;22;19927;-87
2022/01/08 00:06:32;;;;;;;;;;;18.30;53.70;;;;;;3894606;22;19939;-86
2022/01/08 00:08:04;;;;;;;;;;;18.30;53.70;;;;;;3894557;22;19923;-88
2022/01/08 09:19:03;;;;;;;;;;;18.80;58.30;;;;;;3857370;23;19920;-86
2022/01/08 09:20:35;;;;;;;;;;;18.70;58.20;;;;;;3856511;23;19927;-86
2022/01/08 09:22:07;;;;;;;;;;;18.80;58.20;;;;;;3857203;23;19999;-89
2022/01/08 09:23:38;;;;;;;;;;;18.70;58.10;;;;;;3858448;23;19940;-89
2022/01/08 09:25:10;;;;;;;;;;;18.80;58.00;;;;;;3855764;23;19924;-89
2022/01/08 09:26:42;;;;;;;;;;;18.80;57.90;;;;;;3857095;23;19920;-90
2022/01/08 09:28:14;;;;;;;;;;;18.80;58.00;;;;;;3854953;23;19970;-89
2022/01/08 09:29:45;;;;;;;;;;;18.80;57.90;;;;;;3857190;23;19990;-89
2022/01/08 09:31:18;;;;;;;;;;;18.80;57.90;;;;;;3857131;23;19994;-89
2022/01/08 09:32:50;;;;;;;;;;;18.80;57.90;;;;;;3856068;23;19966;-88
2022/01/08 09:34:23;;;;;;;;;;;18.80;57.80;;;;;;3856563;23;19920;-89
2022/01/08 09:35:55;;;;;;;;;;;18.70;57.70;;;;;;3857470;23;19920;-89
2022/01/08 09:37:26;;;;;;;;;;;18.80;57.70;;;;;;3857028;22;19935;-89
2022/01/08 09:38:58;;;;;;;;;;;18.80;58.20;;;;;;3857506;23;20313;-89
2022/01/08 09:40:30;;;;;;;;;;;18.80;57.60;;;;;;3857429;23;19940;-89
2022/01/08 09:42:02;;;;;;;;;;;18.80;58.20;;;;;;3856318;22;20019;-88
2022/01/08 09:43:35;;;;;;;;;;;18.70;57.50;;;;;;3856697;23;19920;-89
2022/01/08 09:45:07;;;;;;;;;;;18.80;57.40;;;;;;3856207;23;19923;-88
2022/01/08 09:46:38;;;;;;;;;;;18.80;57.40;;;;;;3856528;22;19973;-89
2022/01/08 09:48:10;;;;;;;;;;;18.80;57.40;;;;;;3862099;23;19923;-89
2022/01/08 09:49:43;;;;;;;;;;;18.80;57.30;;;;;;3857224;23;19927;-89
2022/01/08 09:51:15;;;;;;;;;;;18.80;57.30;;;;;;3857483;23;19964;-89
2022/01/08 09:52:46;;;;;;;;;;;18.80;57.20;;;;;;3856857;22;19986;-89
2022/01/08 09:54:18;;;;;;;;;;;18.80;57.00;;;;;;3856501;23;19924;-89
2022/01/08 09:55:50;;;;;;;;;;;18.80;56.90;;;;;;3857169;23;19919;-89
2022/01/08 09:57:21;;;;;;;;;;;18.80;57.00;;;;;;3856910;22;19926;-89
2022/01/08 09:58:53;;;;;;;;;;;18.80;57.00;;;;;;3857145;23;19924;-88
2022/01/08 10:00:24;;;;;;;;;;;18.90;57.00;;;;;;3856654;23;19927;-89
2022/01/08 10:01:58;;;;;;;;;;;18.80;57.00;;;;;;3857199;22;20387;-89
2022/01/08 10:03:31;;;;;;;;;;;18.80;57.00;;;;;;3856397;23;19954;-89
2022/01/08 10:05:09;;;;;;;;;;;18.90;56.90;;;;;;3858536;23;19920;-89
2022/01/08 10:06:41;;;;;;;;;;;18.90;56.90;;;;;;3859453;22;19950;-89
2022/01/08 10:08:13;;;;;;;;;;;18.90;56.80;;;;;;3857082;23;20351;-89
2022/01/08 10:10:03;;;;;;;;;;;18.90;56.70;;;;;;3857499;23;19920;-89
2022/01/08 10:11:36;;;;;;;;;;;19.00;56.80;;;;;;3860091;23;19982;-89
2022/01/08 10:13:08;;;;;;;;;;;19.00;56.60;;;;;;3860837;23;19920;-89
2022/01/08 10:17:13;;;;;;;;;;;19.00;56.70;;;;;;3858849;23;20379;-90
2022/01/08 10:18:22;;;;;;;;;;;19.00;56.50;;;;;;3858090;23;19920;-89
2022/01/08 10:19:53;;;;;;;;;;;18.90;56.30;;;;;;3858021;23;19983;-89
2022/01/08 10:21:28;;;;;;;;;;;18.90;56.30;;;;;;3858013;23;19978;-90
2022/01/08 10:23:00;;;;;;;;;;;18.90;56.30;;;;;;3856934;22;20302;-89
2022/01/08 10:24:32;;;;;;;;;;;19.00;56.30;;;;;;3857843;23;19920;-89
2022/01/08 10:26:04;;;;;;;;;;;19.00;56.30;;;;;;3858223;23;19939;-89
2022/01/08 10:27:36;;;;;;;;;;;19.00;56.20;;;;;;3857943;22;19920;-88
2022/01/08 10:29:08;;;;;;;;;;;19.00;56.20;;;;;;3858039;23;19920;-89
2022/01/08 10:30:39;;;;;;;;;;;19.00;56.20;;;;;;3857470;23;19944;-90
2022/01/08 10:32:11;;;;;;;;;;;19.00;56.00;;;;;;3857535;22;19924;-90
2022/01/08 10:33:44;;;;;;;;;;;19.00;56.10;;;;;;3857294;23;19943;-89
2022/01/08 10:35:15;;;;;;;;;;;19.00;56.00;;;;;;3858598;23;20486;-90
2022/01/08 10:36:49;;;;;;;;;;;19.00;55.90;;;;;;3857546;22;19920;-89
2022/01/08 10:38:21;;;;;;;;;;;19.00;56.00;;;;;;3858456;23;19930;-89
2022/01/08 10:39:54;;;;;;;;;;;19.00;55.90;;;;;;3858135;23;19919;-89
2022/01/08 10:41:26;;;;;;;;;;;19.00;56.00;;;;;;3857940;23;20390;-88
2022/01/08 10:42:56;;;;;;;;;;;19.00;55.90;;;;;;3857015;22;19974;-90
2022/01/08 10:44:28;;;;;;;;;;;19.00;55.80;;;;;;3857822;23;19982;-89
2022/01/08 10:46:10;;;;;;;;;;;19.00;55.70;;;;;;3857385;23;19982;-89
2022/01/08 10:47:41;;;;;;;;;;;19.00;55.60;;;;;;3857153;22;19970;-89
2022/01/08 10:49:15;;;;;;;;;;;19.00;55.60;;;;;;3857497;23;19920;-89
2022/01/08 10:50:46;;;;;;;;;;;19.00;55.60;;;;;;3858242;23;20401;-89
2022/01/08 10:52:19;;;;;;;;;;;19.00;55.50;;;;;;3857467;22;19923;-89
2022/01/08 10:53:54;;;;;;;;;;;19.00;55.50;;;;;;3857691;23;20184;-89
2022/01/08 10:55:29;;;;;;;;;;;19.00;55.40;;;;;;3858061;23;19916;-89
2022/01/08 10:57:02;;;;;;;;;;;19.00;55.30;;;;;;3857643;22;19920;-89
2022/01/08 10:58:42;;;;;;;;;;;19.10;55.40;;;;;;3858249;23;20343;-89
2022/01/08 11:00:14;;;;;;;;;;;19.00;55.30;;;;;;3857222;23;19916;-89
2022/01/08 11:01:50;;;;;;;;;;;19.00;55.20;;;;;;3857348;23;19923;-89
2022/01/08 11:03:36;;;;;;;;;;;19.00;55.20;;;;;;3857513;23;19970;-89
2022/01/08 11:05:09;;;;;;;;;;;19.10;55.30;;;;;;3858397;23;19951;-89
2022/01/08 11:06:49;;;;;;;;;;;19.00;55.10;;;;;;3857131;23;19927;-88
2022/01/08 11:08:22;;;;;;;;;;;19.10;55.20;;;;;;3857881;23;20339;-89
2022/01/08 11:09:54;;;;;;;;;;;19.10;55.20;;;;;;3857925;23;19970;-89
2022/01/08 11:11:29;;;;;;;;;;;19.10;55.10;;;;;;3857951;23;19920;-89
2022/01/08 11:13:01;;;;;;;;;;;19.10;55.10;;;;;;3856175;23;19927;-89
2022/01/08 11:16:22;;;;;;;;;;;19.10;55.00;;;;;;3856700;23;19920;-89
2022/01/08 11:17:54;;;;;;;;;;;19.10;55.00;;;;;;3857090;23;19969;-89
2022/01/08 11:19:25;;;;;;;;;;;19.10;55.00;;;;;;3857715;23;19999;-89
2022/01/08 11:20:57;;;;;;;;;;;19.10;55.00;;;;;;3857752;23;19922;-89
2022/01/08 11:22:29;;;;;;;;;;;19.10;54.90;;;;;;3857274;23;19920;-89
2022/01/08 11:24:02;;;;;;;;;;;19.10;54.90;;;;;;3856949;23;20370;-89
2022/01/08 11:25:34;;;;;;;;;;;19.10;54.80;;;;;;3857927;23;19970;-89
2022/01/08 11:27:07;;;;;;;;;;;19.00;54.70;;;;;;3857155;23;19943;-89
2022/01/08 11:28:38;;;;;;;;;;;19.10;54.80;;;;;;3858006;23;19922;-89
2022/01/08 11:30:11;;;;;;;;;;;19.10;54.80;;;;;;3857359;23;19970;-89
2022/01/08 11:31:42;;;;;;;;;;;19.10;54.70;;;;;;3856968;23;19924;-89
2022/01/08 11:33:18;;;;;;;;;;;19.10;54.70;;;;;;3856375;23;19970;-89
2022/01/08 11:34:50;;;;;;;;;;;19.10;54.70;;;;;;3857704;23;20298;-89
2022/01/08 11:36:21;;;;;;;;;;;19.10;54.60;;;;;;3857822;23;19923;-89
2022/01/08 11:37:56;;;;;;;;;;;19.10;54.60;;;;;;3857474;23;19920;-89
2022/01/08 11:39:29;;;;;;;;;;;19.10;54.50;;;;;;3857724;23;19920;-89
2022/01/08 11:41:01;;;;;;;;;;;19.20;55.20;;;;;;3857446;23;19924;-89
2022/01/08 11:42:33;;;;;;;;;;;19.10;54.50;;;;;;3857315;23;19924;-89
2022/01/08 11:44:05;;;;;;;;;;;19.20;54.50;;;;;;3856462;23;20339;-89
2022/01/08 11:45:37;;;;;;;;;;;19.10;54.40;;;;;;3857736;23;20358;-88
2022/01/08 11:47:08;;;;;;;;;;;19.10;54.40;;;;;;3856613;23;19919;-88
2022/01/08 11:48:42;;;;;;;;;;;19.10;54.30;;;;;;3858045;23;19926;-89
2022/01/08 11:50:13;;;;;;;;;;;19.10;54.40;;;;;;3857323;23;20331;-89
2022/01/08 11:51:45;;;;;;;;;;;19.20;54.40;;;;;;3857080;23;19919;-89
2022/01/08 11:53:18;;;;;;;;;;;19.20;54.40;;;;;;3856854;23;19920;-89
2022/01/08 11:54:52;;;;;;;;;;;19.10;54.30;;;;;;3857326;23;19946;-89
2022/01/08 11:56:24;;;;;;;;;;;19.10;54.30;;;;;;3857766;23;19924;-89
2022/01/08 11:58:10;;;;;;;;;;;19.10;54.20;;;;;;3857084;23;19927;-89
2022/01/08 11:59:41;;;;;;;;;;;19.10;54.20;;;;;;3857004;23;19932;-89
2022/01/08 12:01:13;;;;;;;;;;;19.10;54.20;;;;;;3843064;23;20250;-88
2022/01/08 12:02:45;;;;;;;;;;;19.10;54.20;;;;;;3856717;22;19932;-89
2022/01/08 12:04:26;;;;;;;;;;;19.10;54.20;;;;;;3856301;23;19928;-89
2022/01/08 12:05:58;;;;;;;;;;;19.20;54.20;;;;;;3857731;23;19927;-89
2022/01/08 12:07:33;;;;;;;;;;;19.20;54.10;;;;;;3856338;22;20339;-88
